1885 Hurricane NOT_NAMED (1885212N12337)


IBTrACS version v04r00. Visit IBTrACS website for data access.
Please direct all questions to the IBTrACS Q and A forum

Storm track - Intensity - Wind Radii - Intensity Data - Source Data - All data

Summary Information

Storm ID 1885212N12337
Start Jul 30 12Z
Max Intensity 80 kt (Aug 10 18Z), 979 mb (Aug 10 18Z)
End Aug 15 18Z
ATCF IDs ,AL011885
Track status Best track data.

Storm track plot

Map of storm track

Intensity plots

Map of storm track

Radial wind information

No radial wind information for this storm


Position and Intensity Table

BASIN ISO_TIME_________ NATURE LAT LON WMO WIND WMO PRES USA WIND USA PRES MLC WIND MLC PRES
degrees north degrees east kts mb kts mb kts mb
NA 1885-07-30 12:00:00 TS 11.50 -23.00 30
NA 15:00:00 TS 11.75 -23.75 30
NA 18:00:00 TS 12.00 -24.50 30
NA 21:00:00 TS 12.25 -25.25 35
NA 1885-07-31 00:00:00 TS 12.50 -26.00 40
NA 03:00:00 TS 12.75 -26.75 45
NA 06:00:00 TS 13.00 -27.50 50
NA 09:00:00 TS 13.27 -28.21 52
NA 12:00:00 TS 13.50 -29.00 55
NA 15:00:00 TS 13.63 -29.96 55
NA 18:00:00 TS 13.70 -31.00 55
NA 21:00:00 TS 13.76 -32.00 55
NA 1885-08-01 00:00:00 TS 13.80 -33.00 55
NA 03:00:00 TS 13.85 -34.00 55
NA 06:00:00 TS 13.90 -35.00 55
NA 09:00:00 TS 13.94 -36.05 55
NA 12:00:00 TS 14.00 -37.00 55
NA 15:00:00 TS 14.10 -37.74 55
NA 18:00:00 TS 14.20 -38.40 55
NA 21:00:00 TS 14.26 -39.10 55
NA 1885-08-02 00:00:00 TS 14.30 -39.80 55
NA 03:00:00 TS 14.35 -40.51 55
NA 06:00:00 TS 14.40 -41.20 55
NA 09:00:00 TS 14.44 -41.88 55
NA 12:00:00 TS 14.50 -42.50 55
NA 15:00:00 TS 14.59 -43.02 55
NA 18:00:00 TS 14.70 -43.50 55
NA 21:00:00 TS 14.80 -44.00 55
NA 1885-08-03 00:00:00 TS 14.90 -44.50 55
NA 03:00:00 TS 15.01 -45.00 55
NA 06:00:00 TS 15.10 -45.50 55
NA 09:00:00 TS 15.14 -46.02 55
NA 12:00:00 TS 15.20 -46.50 55
NA 15:00:00 TS 15.33 -46.92 55
NA 18:00:00 TS 15.50 -47.30 55
NA 21:00:00 TS 15.65 -47.65 55
NA 1885-08-04 00:00:00 TS 15.80 -48.00 55
NA 03:00:00 TS 15.96 -48.40 55
NA 06:00:00 TS 16.10 -48.80 55
NA 09:00:00 TS 16.18 -49.15 55
NA 12:00:00 TS 16.30 -49.50 55
NA 15:00:00 TS 16.54 -49.90 57
NA 18:00:00 TS 16.80 -50.30 60
NA 21:00:00 TS 17.01 -50.65 60
NA 1885-08-05 00:00:00 TS 17.20 -51.00 60
NA 03:00:00 TS 17.40 -51.40 60
NA 06:00:00 TS 17.60 -51.80 60
NA 09:00:00 TS 17.78 -52.16 60
NA 12:00:00 TS 18.00 -52.50 60
NA 15:00:00 TS 18.33 -52.86 60
NA 18:00:00 TS 18.70 -53.20 60
NA 21:00:00 TS 19.05 -53.51 60
NA 1885-08-06 00:00:00 TS 19.40 -53.80 60
NA 03:00:00 TS 19.76 -54.10 60
NA 06:00:00 TS 20.10 -54.40 60
NA 09:00:00 TS 20.38 -54.69 60
NA 12:00:00 TS 20.70 -55.00 60
NA 15:00:00 TS 21.12 -55.39 60
NA 18:00:00 TS 21.60 -55.80 60
NA 21:00:00 TS 22.10 -56.15 62
NA 1885-08-07 00:00:00 TS 23.10 -57.03 50 50 65
NA 03:00:00 TS 23.71 -57.66 50 65
NA 06:00:00 TS 24.22 -58.14 50 50 65
NA 09:00:00 TS 24.75 -58.49 50 65
NA 12:00:00 TS 25.23 -58.73 50 50 65
NA 15:00:00 TS 25.69 -59.02 50 67
NA 18:00:00 TS 26.13 -59.30 50 50 70
NA 21:00:00 TS 26.58 -59.55 55 70
NA 1885-08-08 00:00:00 TS 27.03 -59.77 60 60 70
NA 03:00:00 TS 27.49 -59.97 60 70
NA 06:00:00 TS 27.93 -60.17 60 60 70
NA 09:00:00 TS 28.33 -60.38 65 70
NA 12:00:00 TS 28.80 -60.57 70 70 70
NA 15:00:00 TS 29.45 -60.69 70 70
NA 18:00:00 TS 30.20 -60.77 70 70 70
NA 21:00:00 TS 30.99 -60.84 70 70
NA 1885-08-09 00:00:00 TS 31.77 -60.90 70 70 70
NA 03:00:00 TS 32.43 -60.97 70 70
NA 06:00:00 TS 33.10 -61.03 70 70 70 990
NA 09:00:00 TS 33.85 -61.10 70 70
NA 12:00:00 TS 34.67 -61.07 70 990 70 990 70
NA 15:00:00 TS 35.53 -60.90 70 985 70
NA 18:00:00 TS 36.43 -60.53 70 981 70 981 70
NA 21:00:00 TS 37.33 -59.92 70 70
NA 1885-08-10 00:00:00 TS 38.23 -59.20 70 70 70
NA 03:00:00 TS 39.17 -58.61 70 70
NA 06:00:00 TS 40.10 -57.93 70 70 70
NA 09:00:00 TS 41.00 -57.04 70 70
NA 12:00:00 TS 41.83 -56.00 70 983 70 983 70 983
NA 15:00:00 TS 42.55 -54.92 75 70 981
NA 18:00:00 MX 43.20 -53.77 80 80 70 979
NA 21:00:00 MX 43.87 -52.63 80 67
NA 1885-08-11 00:00:00 MX 44.53 -51.27 80 80 65
NA 03:00:00 MX 45.17 -49.46 80 62
NA 06:00:00 MX 45.77 -47.47 80 80 60
NA 09:00:00 MX 46.36 -45.41 80 60
NA 12:00:00 MX 46.83 -43.67 80 80 60
NA 15:00:00 MX 47.12 -42.70 75 57
NA 18:00:00 MX 47.33 -42.03 70 70 55
NA 21:00:00 MX 47.58 -41.13 70 55
NA 1885-08-12 00:00:00 MX 47.83 -40.20 70 70 55
NA 03:00:00 MX 48.07 -39.33 70 55
NA 06:00:00 MX 48.33 -38.43 70 70 55
NA 09:00:00 MX 48.66 -37.37 70 55
NA 12:00:00 MX 48.97 -36.33 70 70 55
NA 15:00:00 MX 49.16 -35.52 70 55
NA 18:00:00 MX 49.30 -34.77 70 70 55 993
NA 21:00:00 MX 49.40 -33.90 65 52
NA 1885-08-13 00:00:00 MX 49.50 -33.03 60 60 50
NA 03:00:00 MX 49.66 -32.25 60 47
NA 06:00:00 MX 49.83 -31.50 60 60 45
NA 09:00:00 MX 49.98 -30.70 60 42
NA 12:00:00 MX 50.10 -30.00 60 60 40
NA 15:00:00 MX 50.19 -29.54 60 40
NA 18:00:00 MX 50.30 -29.17 60 60 40 984
NA 21:00:00 MX 50.46 -28.71 55 35
NA 1885-08-14 00:00:00 ET 50.63 -28.23 50 50 30
NA 03:00:00 ET 50.77 -27.79 50 30
NA 06:00:00 ET 50.90 -27.33 50 50 30
NA 09:00:00 ET 51.02 -26.84 50 27
NA 12:00:00 ET 51.13 -26.33 50 50 25
NA 15:00:00 ET 51.25 -25.84 50 25
NA 18:00:00 ET 51.37 -25.37 50 50 25 991
NA 21:00:00 ET 51.49 -24.93 45 25
NA 1885-08-15 00:00:00 ET 51.63 -24.50 40 40 25
NA 03:00:00 ET 51.77 -24.05 40 25
NA 06:00:00 ET 51.93 -23.57 40 40 25
NA 09:00:00 ET 52.13 -23.05 40 25
NA 12:00:00 ET 52.33 -22.50 40 40 25
NA 15:00:00 ET 52.54 -21.94 40 25
NA 18:00:00 ET 52.73 -21.37 40 40 25 1004

Source Information

Agency Information
USA hurdat2-1851-2018-051019.txt:Line=4946:UNNAMED
TOKYO
CMA
HKO
NEWDELHI
REUNION
BOM
NADI
WELLINGTON
DS824
TD9636
TD9635
NEUMANN
MLC

All available IBTrACS Data

SEASON BASIN SUBBASIN ISO_TIME_________ NATURE LAT LON WMO WIND WMO PRES WMO AGENCY DIST2LAND LANDFALL IFLAG USA AGENCY USA ATCF_ID USA LAT USA LON USA STATUS USA WIND USA PRES USA SSHS MLC LAT MLC LON MLC CLASS MLC WIND MLC PRES STORM SPEED STORM DIR
Year degrees north degrees east kts mb km km degrees north degrees east kts mb 1 degrees north degrees east kts mb kts degrees
1885 NA NA 1885-07-30 12:00:00 TS 11.50 -23.00 682 682 _____________O -1 11.50 -23.00 TD 30 16 289
1885 NA NA 15:00:00 TS 11.75 -23.75 745 745 _____________P -1 11.75 -23.75 TD 30 16 289
1885 NA NA 18:00:00 TS 12.00 -24.50 815 815 _____________O -1 12.00 -24.50 TD 30 16 289
1885 NA NA 21:00:00 TS 12.25 -25.25 889 885 _____________P -1 12.25 -25.25 TD 35 16 289
1885 NA NA 1885-07-31 00:00:00 TS 12.50 -26.00 951 951 _____________O -1 12.50 -26.00 TS 40 16 289
1885 NA NA 03:00:00 TS 12.75 -26.75 1029 1027 _____________P -1 12.75 -26.75 TS 45 15 289
1885 NA NA 06:00:00 TS 13.00 -27.50 1096 1096 _____________O -1 13.00 -27.50 TS 50 15 290
1885 NA NA 09:00:00 TS 13.27 -28.21 1165 1165 _____________P -1 13.27 -28.21 TS 52 15 289
1885 NA NA 12:00:00 TS 13.50 -29.00 1247 1247 _____________O -1 13.50 -29.00 TS 55 17 282
1885 NA NA 15:00:00 TS 13.63 -29.96 1353 1353 _____________P -1 13.63 -29.96 TS 55 20 276
1885 NA NA 18:00:00 TS 13.70 -31.00 1460 1460 _____________O -1 13.70 -31.00 TS 55 20 274
1885 NA NA 21:00:00 TS 13.76 -32.00 1566 1566 _____________P -1 13.76 -32.00 TS 55 19 273
1885 NA NA 1885-08-01 00:00:00 TS 13.80 -33.00 1674 1674 _____________O -1 13.80 -33.00 TS 55 19 273
1885 NA NA 03:00:00 TS 13.85 -34.00 1781 1781 _____________P -1 13.85 -34.00 TS 55 19 273
1885 NA NA 06:00:00 TS 13.90 -35.00 1888 1888 _____________O -1 13.90 -35.00 TS 55 20 273
1885 NA NA 09:00:00 TS 13.94 -36.05 1928 1908 _____________P -1 13.94 -36.05 TS 55 19 273
1885 NA NA 12:00:00 TS 14.00 -37.00 1908 1852 _____________O -1 14.00 -37.00 TS 55 17 275
1885 NA NA 15:00:00 TS 14.10 -37.74 1852 1797 _____________P -1 14.10 -37.74 TS 55 14 278
1885 NA NA 18:00:00 TS 14.20 -38.40 1797 1744 _____________O -1 14.20 -38.40 TS 55 13 277
1885 NA NA 21:00:00 TS 14.26 -39.10 1744 1686 _____________P -1 14.26 -39.10 TS 55 14 274
1885 NA NA 1885-08-02 00:00:00 TS 14.30 -39.80 1686 1630 _____________O -1 14.30 -39.80 TS 55 14 274
1885 NA NA 03:00:00 TS 14.35 -40.51 1630 1583 _____________P -1 14.35 -40.51 TS 55 14 274
1885 NA NA 06:00:00 TS 14.40 -41.20 1583 1537 _____________O -1 14.40 -41.20 TS 55 13 274
1885 NA NA 09:00:00 TS 14.44 -41.88 1530 1495 _____________P -1 14.44 -41.88 TS 55 13 275
1885 NA NA 12:00:00 TS 14.50 -42.50 1495 1469 _____________O -1 14.50 -42.50 TS 55 11 278
1885 NA NA 15:00:00 TS 14.59 -43.02 1469 1444 _____________P -1 14.59 -43.02 TS 55 10 282
1885 NA NA 18:00:00 TS 14.70 -43.50 1444 1422 _____________O -1 14.70 -43.50 TS 55 10 282
1885 NA NA 21:00:00 TS 14.80 -44.00 1422 1401 _____________P -1 14.80 -44.00 TS 55 10 282
1885 NA NA 1885-08-03 00:00:00 TS 14.90 -44.50 1401 1377 _____________O -1 14.90 -44.50 TS 55 10 282
1885 NA NA 03:00:00 TS 15.01 -45.00 1377 1353 _____________P -1 15.01 -45.00 TS 55 10 282
1885 NA NA 06:00:00 TS 15.10 -45.50 1353 1323 _____________O -1 15.10 -45.50 TS 55 10 278
1885 NA NA 09:00:00 TS 15.14 -46.02 1323 1303 _____________P -1 15.14 -46.02 TS 55 10 276
1885 NA NA 12:00:00 TS 15.20 -46.50 1303 1291 _____________O -1 15.20 -46.50 TS 55 9 282
1885 NA NA 15:00:00 TS 15.33 -46.92 1291 1285 _____________P -1 15.33 -46.92 TS 55 8 291
1885 NA NA 18:00:00 TS 15.50 -47.30 1290 1285 _____________O -1 15.50 -47.30 TS 55 8 294
1885 NA NA 21:00:00 TS 15.65 -47.65 1281 1281 _____________P -1 15.65 -47.65 TS 55 7 294
1885 NA NA 1885-08-04 00:00:00 TS 15.80 -48.00 1287 1280 _____________O -1 15.80 -48.00 TS 55 8 293
1885 NA NA 03:00:00 TS 15.96 -48.40 1291 1283 _____________P -1 15.96 -48.40 TS 55 8 291
1885 NA NA 06:00:00 TS 16.10 -48.80 1285 1275 _____________O -1 16.10 -48.80 TS 55 8 288
1885 NA NA 09:00:00 TS 16.18 -49.15 1275 1266 _____________P -1 16.18 -49.15 TS 55 7 287
1885 NA NA 12:00:00 TS 16.30 -49.50 1272 1268 _____________O -1 16.30 -49.50 TS 55 8 296
1885 NA NA 15:00:00 TS 16.54 -49.90 1276 1276 _____________P -1 16.54 -49.90 TS 57 9 303
1885 NA NA 18:00:00 TS 16.80 -50.30 1292 1288 _____________O -1 16.80 -50.30 TS 60 9 303
1885 NA NA 21:00:00 TS 17.01 -50.65 1300 1300 _____________P -1 17.01 -50.65 TS 60 8 301
1885 NA NA 1885-08-05 00:00:00 TS 17.20 -51.00 1301 1278 _____________O -1 17.20 -51.00 TS 60 8 299
1885 NA NA 03:00:00 TS 17.40 -51.40 1278 1257 _____________P -1 17.40 -51.40 TS 60 9 298
1885 NA NA 06:00:00 TS 17.60 -51.80 1257 1238 _____________O -1 17.60 -51.80 TS 60 8 298
1885 NA NA 09:00:00 TS 17.78 -52.16 1237 1227 _____________P -1 17.78 -52.16 TS 60 8 301
1885 NA NA 12:00:00 TS 18.00 -52.50 1227 1218 _____________O -1 18.00 -52.50 TS 60 9 310
1885 NA NA 15:00:00 TS 18.33 -52.86 1217 1217 _____________P -1 18.33 -52.86 TS 60 10 316
1885 NA NA 18:00:00 TS 18.70 -53.20 1226 1226 _____________O -1 18.70 -53.20 TS 60 10 320
1885 NA NA 21:00:00 TS 19.05 -53.51 1229 1229 _____________P -1 19.05 -53.51 TS 60 9 321
1885 NA NA 1885-08-06 00:00:00 TS 19.40 -53.80 1243 1217 _____________O -1 19.40 -53.80 TS 60 9 322
1885 NA NA 03:00:00 TS 19.76 -54.10 1218 1189 _____________P -1 19.76 -54.10 TS 60 9 321
1885 NA NA 06:00:00 TS 20.10 -54.40 1190 1164 _____________O -1 20.10 -54.40 TS 60 8 319
1885 NA NA 09:00:00 TS 20.38 -54.69 1164 1139 _____________P -1 20.38 -54.69 TS 60 8 317
1885 NA NA 12:00:00 TS 20.70 -55.00 1139 1109 _____________O -1 20.70 -55.00 TS 60 10 318
1885 NA NA 15:00:00 TS 21.12 -55.39 1109 1081 _____________P -1 21.12 -55.39 TS 60 12 320
1885 NA NA 18:00:00 TS 21.60 -55.80 1084 1069 _____________O -1 21.60 -55.80 TS 60 12 324
1885 NA NA 21:00:00 TS 22.10 -56.15 1063 1031 _____________P -1 22.10 -56.15 TS 62 19 323
1885 NA NA 1885-08-07 00:00:00 TS 23.10 -57.03 50 hurdat_atl 1036 1013 O____________O hurdat_atl AL011885 24.10 -58.10 TS 50 0 22.60 -56.50 HU 65 21 319
1885 NA NA 03:00:00 TS 23.71 -57.66 1011 1004 P____________P AL011885 24.37 -58.42 TS 50 0 23.05 -56.90 HU 65 15 318
1885 NA NA 06:00:00 TS 24.22 -58.14 50 hurdat_atl 1011 1003 O____________O hurdat_atl AL011885 24.70 -58.70 TS 50 0 23.50 -57.30 HU 65 13 324
1885 NA NA 09:00:00 TS 24.75 -58.49 1024 1024 P____________P AL011885 25.13 -58.91 TS 50 0 24.00 -57.66 HU 65 12 332
1885 NA NA 12:00:00 TS 25.23 -58.73 50 hurdat_atl 1041 1041 O____________O hurdat_atl AL011885 25.60 -59.10 TS 50 0 24.50 -58.00 HU 65 11 333
1885 NA NA 15:00:00 TS 25.69 -59.02 1061 1055 P____________P AL011885 26.05 -59.35 TS 50 0 24.96 -58.36 HU 67 10 330
1885 NA NA 18:00:00 TS 26.13 -59.30 50 hurdat_atl 1077 1077 O____________O hurdat_atl AL011885 26.50 -59.60 TS 50 0 25.40 -58.70 HU 70 10 332
1885 NA NA 21:00:00 TS 26.58 -59.55 1109 1104 P____________P AL011885 26.95 -59.82 TS 55 0 25.85 -59.01 HU 70 10 335
1885 NA NA 1885-08-08 00:00:00 TS 27.03 -59.77 60 hurdat_atl 1129 1129 O____________O hurdat_atl AL011885 27.40 -60.00 TS 60 0 26.30 -59.30 HU 70 10 337
1885 NA NA 03:00:00 TS 27.49 -59.97 1167 1167 P____________P AL011885 27.85 -60.16 TS 60 0 26.76 -59.60 HU 70 10 339
1885 NA NA 06:00:00 TS 27.93 -60.17 60 hurdat_atl 1196 1196 O____________O hurdat_atl AL011885 28.30 -60.30 TS 60 0 27.20 -59.90 HU 70 9 337
1885 NA NA 09:00:00 TS 28.33 -60.38 1226 1226 P____________P AL011885 28.73 -60.46 TS 65 1 27.53 -60.22 HU 70 9 338
1885 NA NA 12:00:00 TS 28.80 -60.57 70 hurdat_atl 1268 1268 O____________O hurdat_atl AL011885 29.20 -60.60 HU 70 1 28.00 -60.50 HU 70 12 346
1885 NA NA 15:00:00 TS 29.45 -60.69 1325 1325 P____________P AL011885 29.75 -60.67 HU 70 1 28.83 -60.72 HU 70 14 353
1885 NA NA 18:00:00 TS 30.20 -60.77 70 hurdat_atl 1404 1404 O____________O hurdat_atl AL011885 30.40 -60.70 HU 70 1 29.80 -60.90 HU 70 16 355
1885 NA NA 21:00:00 TS 30.99 -60.84 1445 1369 P____________P AL011885 31.16 -60.71 HU 70 1 30.65 -61.10 HU 70 16 356
1885 NA NA 1885-08-09 00:00:00 TS 31.77 -60.90 70 hurdat_atl 1358 1291 O____________O hurdat_atl AL011885 31.90 -60.70 HU 70 1 31.50 -61.30 HU 70 15 356
1885 NA NA 03:00:00 TS 32.43 -60.97 1291 1216 P____________P AL011885 32.45 -60.71 HU 70 1 32.40 -61.51 HU 70 13 355
1885 NA NA 06:00:00 TS 33.10 -61.03 70 hurdat_atl 1216 1139 O____________O hurdat_atl AL011885 33.00 -60.70 HU 70 1 33.30 -61.70 HU 70 990 14 356
1885 NA NA 09:00:00 TS 33.85 -61.10 1128 1054 P____________P AL011885 33.70 -60.67 HU 70 1 34.16 -61.95 HU 70 16 360
1885 NA NA 12:00:00 TS 34.67 -61.07 70 990 hurdat_atl 1043 966 O____________O hurdat_atl AL011885 34.50 -60.60 HU 70 990 1 35.00 -62.00 HU 70 17 6
1885 NA NA 15:00:00 TS 35.53 -60.90 966 885 P____________P AL011885 35.37 -60.52 HU 70 985 1 35.86 -61.67 HU 70 18 14
1885 NA NA 18:00:00 TS 36.43 -60.53 70 981 hurdat_atl 888 821 O____________O hurdat_atl AL011885 36.30 -60.30 HU 70 981 1 36.70 -61.00 HU 70 20 24
1885 NA NA 21:00:00 TS 37.33 -59.92 826 779 P____________P AL011885 37.23 -59.88 HU 70 1 37.51 -60.00 HU 70 21 31
1885 NA NA 1885-08-10 00:00:00 TS 38.23 -59.20 70 hurdat_atl 779 706 O____________O hurdat_atl AL011885 38.20 -59.30 HU 70 1 38.30 -59.00 HU 70 21 29
1885 NA NA 03:00:00 TS 39.17 -58.61 698 631 P____________P AL011885 39.21 -58.67 HU 70 1 39.10 -58.49 HU 70 21 28
1885 NA NA 06:00:00 TS 40.10 -57.93 70 hurdat_atl 624 567 O____________O hurdat_atl AL011885 40.20 -57.90 HU 70 1 39.90 -58.00 HU 70 22 33
1885 NA NA 09:00:00 TS 41.00 -57.04 572 544 P____________P AL011885 41.14 -57.04 HU 70 1 40.72 -57.04 HU 70 23 40
1885 NA NA 12:00:00 TS 41.83 -56.00 70 983 hurdat_atl 549 468 O____________O hurdat_atl AL011885 42.00 -56.00 HU 70 983 1 41.50 -56.00 HU 70 983 22 46
1885 NA NA 15:00:00 TS 42.55 -54.92 467 378 P____________P AL011885 42.73 -54.78 HU 75 1 42.18 -55.21 HU 70 981 21 50
1885 NA NA 18:00:00 MX 43.20 -53.77 80 hurdat_atl 378 312 O____________O hurdat_atl AL011885 43.40 -53.40 HU 80 1 42.80 -54.50 EX 70 979 21 52
1885 NA NA 21:00:00 MX 43.87 -52.63 303 270 P____________P AL011885 44.11 -51.94 HU 80 1 43.39 -54.00 EX 67 22 54
1885 NA NA 1885-08-11 00:00:00 MX 44.53 -51.27 80 hurdat_atl 275 270 O____________O hurdat_atl AL011885 44.80 -50.40 HU 80 1 44.00 -53.00 EX 65 26 60
1885 NA NA 03:00:00 MX 45.17 -49.46 322 322 P____________P AL011885 45.43 -48.81 HU 80 1 44.66 -50.77 EX 62 29 65
1885 NA NA 06:00:00 MX 45.77 -47.47 80 hurdat_atl 431 431 O____________O hurdat_atl AL011885 46.00 -47.20 HU 80 1 45.30 -48.00 EX 60 31 67
1885 NA NA 09:00:00 MX 46.36 -45.41 557 557 P____________P AL011885 46.55 -45.49 HU 80 1 45.97 -45.24 EX 60 28 68
1885 NA NA 12:00:00 MX 46.83 -43.67 80 hurdat_atl 674 674 O____________O hurdat_atl AL011885 47.00 -44.00 HU 80 1 46.50 -43.00 EX 60 20 68
1885 NA NA 15:00:00 MX 47.12 -42.70 744 744 P____________P AL011885 47.28 -43.05 HU 75 1 46.79 -41.98 EX 57 12 66
1885 NA NA 18:00:00 MX 47.33 -42.03 70 hurdat_atl 794 794 O____________O hurdat_atl AL011885 47.50 -42.30 HU 70 1 47.00 -41.50 EX 55 12 66
1885 NA NA 21:00:00 MX 47.58 -41.13 858 858 P____________P AL011885 47.75 -41.31 HU 70 1 47.25 -40.75 EX 55 13 68
1885 NA NA 1885-08-12 00:00:00 MX 47.83 -40.20 70 hurdat_atl 924 924 O____________O hurdat_atl AL011885 48.00 -40.30 HU 70 1 47.50 -40.00 EX 55 13 68
1885 NA NA 03:00:00 MX 48.07 -39.33 990 990 P____________P AL011885 48.23 -39.38 HU 70 1 47.75 -39.25 EX 55 13 67
1885 NA NA 06:00:00 MX 48.33 -38.43 70 hurdat_atl 1056 1056 O____________O hurdat_atl AL011885 48.50 -38.40 HU 70 1 48.00 -38.50 EX 55 14 66
1885 NA NA 09:00:00 MX 48.66 -37.37 1129 1129 P____________P AL011885 48.85 -37.17 HU 70 1 48.29 -37.77 EX 55 15 65
1885 NA NA 12:00:00 MX 48.97 -36.33 70 hurdat_atl 1210 1210 O____________O hurdat_atl AL011885 49.20 -36.00 HU 70 1 48.50 -37.00 EX 55 13 68
1885 NA NA 15:00:00 MX 49.16 -35.52 1268 1268 P____________P AL011885 49.48 -35.20 HU 70 1 48.54 -36.17 EX 55 11 72
1885 NA NA 18:00:00 MX 49.30 -34.77 70 hurdat_atl 1306 1306 O____________O hurdat_atl AL011885 49.70 -34.50 HU 70 1 48.50 -35.30 EX 55 993 11 77
1885 NA NA 21:00:00 MX 49.40 -33.90 1320 1320 P____________P AL011885 49.85 -33.64 HU 65 1 48.50 -34.41 EX 52 11 80
1885 NA NA 1885-08-13 00:00:00 MX 49.50 -33.03 60 hurdat_atl 1336 1335 O____________O hurdat_atl AL011885 50.00 -32.80 TS 60 0 48.50 -33.50 EX 50 11 76
1885 NA NA 03:00:00 MX 49.66 -32.25 1340 1340 P____________P AL011885 50.24 -32.08 TS 60 0 48.50 -32.59 EX 47 10 71
1885 NA NA 06:00:00 MX 49.83 -31.50 60 hurdat_atl 1354 1347 O____________O hurdat_atl AL011885 50.50 -31.40 TS 60 0 48.50 -31.70 EX 45 10 72
1885 NA NA 09:00:00 MX 49.98 -30.70 1362 1362 P____________P AL011885 50.73 -30.68 TS 60 0 48.47 -30.74 EX 42 10 75
1885 NA NA 12:00:00 MX 50.10 -30.00 60 hurdat_atl 1368 1338 O____________O hurdat_atl AL011885 50.90 -30.00 TS 60 0 48.50 -30.00 EX 40 8 74
1885 NA NA 15:00:00 MX 50.19 -29.54 1331 1307 P____________P AL011885 50.96 -29.44 TS 60 0 48.67 -29.74 EX 40 6 69
1885 NA NA 18:00:00 MX 50.30 -29.17 60 hurdat_atl 1307 1267 O____________O hurdat_atl AL011885 51.00 -28.90 TS 60 0 48.90 -29.70 EX 40 984 6 63
1885 NA NA 21:00:00 MX 50.46 -28.71 1267 1237 P____________P AL011885 51.14 -28.26 TS 55 0 49.10 -29.60 EX 35 7 61
1885 NA NA 1885-08-14 00:00:00 ET 50.63 -28.23 50 hurdat_atl 1231 1198 O____________O hurdat_atl AL011885 51.30 -27.60 EX 50 -4 49.30 -29.50 EX 30 7 62
1885 NA NA 03:00:00 ET 50.77 -27.79 1198 1168 P____________P AL011885 51.41 -27.01 EX 50 -4 49.51 -29.35 EX 30 6 65
1885 NA NA 06:00:00 ET 50.90 -27.33 50 hurdat_atl 1161 1132 O____________O hurdat_atl AL011885 51.50 -26.40 EX 50 -4 49.70 -29.20 EX 30 6 68
1885 NA NA 09:00:00 ET 51.02 -26.84 1125 1095 P____________P AL011885 51.60 -25.67 EX 50 -4 49.86 -29.17 EX 27 7 70
1885 NA NA 12:00:00 ET 51.13 -26.33 50 hurdat_atl 1089 1059 O____________O hurdat_atl AL011885 51.70 -25.00 EX 50 -4 50.00 -29.00 EX 25 7 70
1885 NA NA 15:00:00 ET 51.25 -25.84 1052 1021 P____________P AL011885 51.79 -24.54 EX 50 -4 50.16 -28.44 EX 25 6 69
1885 NA NA 18:00:00 ET 51.37 -25.37 50 hurdat_atl 1021 992 O____________O hurdat_atl AL011885 51.90 -24.20 EX 50 -4 50.30 -27.70 EX 25 991 6 66
1885 NA NA 21:00:00 ET 51.49 -24.93 985 956 P____________P AL011885 52.04 -23.89 EX 45 -4 50.40 -27.01 EX 25 6 64
1885 NA NA 1885-08-15 00:00:00 ET 51.63 -24.50 40 hurdat_atl 956 926 O____________O hurdat_atl AL011885 52.20 -23.60 EX 40 -4 50.50 -26.30 EX 25 6 63
1885 NA NA 03:00:00 ET 51.77 -24.05 919 891 P____________P AL011885 52.33 -23.27 EX 40 -4 50.65 -25.60 EX 25 6 63
1885 NA NA 06:00:00 ET 51.93 -23.57 40 hurdat_atl 891 855 O____________O hurdat_atl AL011885 52.50 -22.90 EX 40 -4 50.80 -24.90 EX 25 7 60
1885 NA NA 09:00:00 ET 52.13 -23.05 848 812 P____________P AL011885 52.73 -22.47 EX 40 -4 50.91 -24.20 EX 25 8 59
1885 NA NA 12:00:00 ET 52.33 -22.50 40 hurdat_atl 812 778 O____________O hurdat_atl AL011885 53.00 -22.00 EX 40 -4 51.00 -23.50 EX 25 8 59
1885 NA NA 15:00:00 ET 52.54 -21.94 771 737 P____________P AL011885 53.26 -21.51 EX 40 -4 51.10 -22.80 EX 25 8 60
1885 NA NA 18:00:00 ET 52.73 -21.37 40 hurdat_atl 737 O____________O hurdat_atl AL011885 53.50 -21.00 EX 40 -4 51.20 -22.10 EX 25 1004 8 60